sensor_id;sensor_type;location;lat;lon;timestamp;P1;durP1;ratioP1;P2;durP2;ratioP2
56537;SDS011;42435;53.292;6.000;2023-04-06T00:01:09;13.77;;;9.05;;
56537;SDS011;42435;53.292;6.000;2023-04-06T00:03:35;13.23;;;8.90;;
56537;SDS011;42435;53.292;6.000;2023-04-06T00:06:01;14.77;;;9.80;;
56537;SDS011;42435;53.292;6.000;2023-04-06T00:08:27;13.13;;;8.90;;
56537;SDS011;42435;53.292;6.000;2023-04-06T00:10:53;14.75;;;8.90;;
56537;SDS011;42435;53.292;6.000;2023-04-06T00:13:19;14.48;;;9.52;;
56537;SDS011;42435;53.292;6.000;2023-04-06T00:15:45;13.18;;;8.80;;
56537;SDS011;42435;53.292;6.000;2023-04-06T00:18:10;14.63;;;9.43;;
56537;SDS011;42435;53.292;6.000;2023-04-06T00:20:36;14.90;;;8.95;;
56537;SDS011;42435;53.292;6.000;2023-04-06T00:23:01;12.30;;;8.55;;
56537;SDS011;42435;53.292;6.000;2023-04-06T00:25:27;13.32;;;9.38;;
56537;SDS011;42435;53.292;6.000;2023-04-06T00:27:53;14.05;;;8.65;;
56537;SDS011;42435;53.292;6.000;2023-04-06T00:30:18;18.65;;;9.30;;
56537;SDS011;42435;53.292;6.000;2023-04-06T00:32:44;15.55;;;9.27;;
56537;SDS011;42435;53.292;6.000;2023-04-06T00:35:10;12.35;;;9.20;;
56537;SDS011;42435;53.292;6.000;2023-04-06T00:37:35;12.27;;;8.65;;
56537;SDS011;42435;53.292;6.000;2023-04-06T00:40:04;11.88;;;8.50;;
56537;SDS011;42435;53.292;6.000;2023-04-06T00:42:33;12.75;;;8.65;;
56537;SDS011;42435;53.292;6.000;2023-04-06T00:45:02;11.82;;;8.63;;
56537;SDS011;42435;53.292;6.000;2023-04-06T00:47:28;11.63;;;8.85;;
56537;SDS011;42435;53.292;6.000;2023-04-06T00:49:56;13.38;;;9.45;;
56537;SDS011;42435;53.292;6.000;2023-04-06T00:52:21;13.95;;;9.57;;
56537;SDS011;42435;53.292;6.000;2023-04-06T00:54:47;13.57;;;8.90;;
56537;SDS011;42435;53.292;6.000;2023-04-06T00:57:13;11.25;;;8.65;;
56537;SDS011;42435;53.292;6.000;2023-04-06T00:59:39;10.93;;;7.90;;
56537;SDS011;42435;53.292;6.000;2023-04-06T01:02:06;12.27;;;8.52;;
56537;SDS011;42435;53.292;6.000;2023-04-06T01:04:32;15.45;;;8.70;;
56537;SDS011;42435;53.292;6.000;2023-04-06T01:06:58;11.50;;;8.57;;
56537;SDS011;42435;53.292;6.000;2023-04-06T01:09:24;11.82;;;8.27;;
56537;SDS011;42435;53.292;6.000;2023-04-06T01:11:50;12.35;;;8.70;;
56537;SDS011;42435;53.292;6.000;2023-04-06T01:14:15;13.35;;;8.57;;
56537;SDS011;42435;53.292;6.000;2023-04-06T01:16:41;11.45;;;8.18;;
56537;SDS011;42435;53.292;6.000;2023-04-06T01:19:08;14.35;;;8.82;;
56537;SDS011;42435;53.292;6.000;2023-04-06T01:21:35;11.35;;;8.68;;
56537;SDS011;42435;53.292;6.000;2023-04-06T01:24:01;12.45;;;9.45;;
56537;SDS011;42435;53.292;6.000;2023-04-06T01:26:27;11.95;;;8.77;;
56537;SDS011;42435;53.292;6.000;2023-04-06T01:28:54;12.48;;;9.10;;
56537;SDS011;42435;53.292;6.000;2023-04-06T01:31:20;12.52;;;8.77;;
56537;SDS011;42435;53.292;6.000;2023-04-06T01:33:46;12.95;;;8.23;;
56537;SDS011;42435;53.292;6.000;2023-04-06T01:36:12;10.55;;;9.02;;
56537;SDS011;42435;53.292;6.000;2023-04-06T01:38:40;11.55;;;8.32;;
56537;SDS011;42435;53.292;6.000;2023-04-06T01:41:06;11.60;;;8.32;;
56537;SDS011;42435;53.292;6.000;2023-04-06T01:43:32;10.65;;;8.77;;
56537;SDS011;42435;53.292;6.000;2023-04-06T01:45:58;11.68;;;9.27;;
56537;SDS011;42435;53.292;6.000;2023-04-06T01:48:24;16.10;;;9.32;;
56537;SDS011;42435;53.292;6.000;2023-04-06T01:50:50;10.85;;;8.60;;
56537;SDS011;42435;53.292;6.000;2023-04-06T01:53:16;13.55;;;9.05;;
56537;SDS011;42435;53.292;6.000;2023-04-06T01:55:41;15.15;;;8.52;;
56537;SDS011;42435;53.292;6.000;2023-04-06T01:58:08;12.52;;;8.50;;
56537;SDS011;42435;53.292;6.000;2023-04-06T02:00:34;12.90;;;9.02;;
56537;SDS011;42435;53.292;6.000;2023-04-06T02:03:00;14.90;;;9.75;;
56537;SDS011;42435;53.292;6.000;2023-04-06T02:05:25;13.98;;;9.25;;
56537;SDS011;42435;53.292;6.000;2023-04-06T02:07:51;12.32;;;9.43;;
56537;SDS011;42435;53.292;6.000;2023-04-06T02:10:17;15.45;;;9.50;;
56537;SDS011;42435;53.292;6.000;2023-04-06T02:12:42;13.05;;;8.63;;
56537;SDS011;42435;53.292;6.000;2023-04-06T02:15:08;19.13;;;9.13;;
56537;SDS011;42435;53.292;6.000;2023-04-06T02:17:34;12.43;;;8.85;;
56537;SDS011;42435;53.292;6.000;2023-04-06T02:20:00;12.00;;;8.77;;
56537;SDS011;42435;53.292;6.000;2023-04-06T02:22:29;11.25;;;9.05;;
56537;SDS011;42435;53.292;6.000;2023-04-06T02:24:54;10.23;;;8.88;;
56537;SDS011;42435;53.292;6.000;2023-04-06T02:27:20;12.60;;;8.07;;
56537;SDS011;42435;53.292;6.000;2023-04-06T02:29:45;11.63;;;8.48;;
56537;SDS011;42435;53.292;6.000;2023-04-06T02:32:11;14.45;;;8.93;;
56537;SDS011;42435;53.292;6.000;2023-04-06T02:34:37;13.05;;;9.20;;
56537;SDS011;42435;53.292;6.000;2023-04-06T02:37:02;13.05;;;8.48;;
56537;SDS011;42435;53.292;6.000;2023-04-06T02:39:28;10.43;;;8.25;;
56537;SDS011;42435;53.292;6.000;2023-04-06T02:41:53;11.02;;;8.48;;
56537;SDS011;42435;53.292;6.000;2023-04-06T02:44:20;15.00;;;9.18;;
56537;SDS011;42435;53.292;6.000;2023-04-06T02:46:45;14.30;;;8.77;;
56537;SDS011;42435;53.292;6.000;2023-04-06T02:49:11;12.60;;;8.50;;
56537;SDS011;42435;53.292;6.000;2023-04-06T02:51:36;14.52;;;10.50;;
56537;SDS011;42435;53.292;6.000;2023-04-06T02:54:02;14.43;;;9.73;;
56537;SDS011;42435;53.292;6.000;2023-04-06T02:56:28;11.65;;;9.23;;
56537;SDS011;42435;53.292;6.000;2023-04-06T02:58:53;12.55;;;8.82;;
56537;SDS011;42435;53.292;6.000;2023-04-06T03:01:19;11.52;;;8.90;;
56537;SDS011;42435;53.292;6.000;2023-04-06T03:03:45;13.50;;;8.82;;
56537;SDS011;42435;53.292;6.000;2023-04-06T03:06:10;12.82;;;8.90;;
56537;SDS011;42435;53.292;6.000;2023-04-06T03:08:36;15.55;;;8.73;;
56537;SDS011;42435;53.292;6.000;2023-04-06T03:11:01;12.27;;;8.30;;
56537;SDS011;42435;53.292;6.000;2023-04-06T03:13:27;12.63;;;8.98;;
56537;SDS011;42435;53.292;6.000;2023-04-06T03:15:53;11.13;;;8.90;;
56537;SDS011;42435;53.292;6.000;2023-04-06T03:18:20;13.75;;;9.70;;
56537;SDS011;42435;53.292;6.000;2023-04-06T03:20:48;10.63;;;8.02;;
56537;SDS011;42435;53.292;6.000;2023-04-06T03:23:13;11.90;;;8.07;;
56537;SDS011;42435;53.292;6.000;2023-04-06T03:25:42;13.90;;;8.68;;
56537;SDS011;42435;53.292;6.000;2023-04-06T03:28:08;11.40;;;9.07;;
56537;SDS011;42435;53.292;6.000;2023-04-06T03:30:33;14.88;;;8.32;;
56537;SDS011;42435;53.292;6.000;2023-04-06T03:32:59;10.88;;;8.57;;
56537;SDS011;42435;53.292;6.000;2023-04-06T03:35:25;12.32;;;8.25;;
56537;SDS011;42435;53.292;6.000;2023-04-06T03:37:50;13.35;;;8.82;;
56537;SDS011;42435;53.292;6.000;2023-04-06T03:40:16;11.07;;;8.30;;
56537;SDS011;42435;53.292;6.000;2023-04-06T03:42:42;12.15;;;8.45;;
56537;SDS011;42435;53.292;6.000;2023-04-06T03:45:07;9.38;;;8.35;;
56537;SDS011;42435;53.292;6.000;2023-04-06T03:47:33;11.95;;;9.00;;
56537;SDS011;42435;53.292;6.000;2023-04-06T03:50:02;11.63;;;8.20;;
56537;SDS011;42435;53.292;6.000;2023-04-06T03:52:28;16.85;;;9.38;;
56537;SDS011;42435;53.292;6.000;2023-04-06T03:54:53;11.48;;;8.32;;
56537;SDS011;42435;53.292;6.000;2023-04-06T03:57:19;11.18;;;8.32;;
56537;SDS011;42435;53.292;6.000;2023-04-06T03:59:44;11.32;;;9.07;;
56537;SDS011;42435;53.292;6.000;2023-04-06T04:02:10;11.07;;;8.73;;
56537;SDS011;42435;53.292;6.000;2023-04-06T04:04:36;13.48;;;8.90;;
56537;SDS011;42435;53.292;6.000;2023-04-06T04:07:03;12.77;;;9.40;;
56537;SDS011;42435;53.292;6.000;2023-04-06T04:09:28;13.43;;;8.93;;
56537;SDS011;42435;53.292;6.000;2023-04-06T04:11:54;12.65;;;8.82;;
56537;SDS011;42435;53.292;6.000;2023-04-06T04:14:20;16.17;;;8.80;;
56537;SDS011;42435;53.292;6.000;2023-04-06T04:16:46;12.07;;;8.68;;
56537;SDS011;42435;53.292;6.000;2023-04-06T04:19:11;11.88;;;8.63;;
56537;SDS011;42435;53.292;6.000;2023-04-06T04:21:45;12.32;;;8.23;;
56537;SDS011;42435;53.292;6.000;2023-04-06T04:24:12;13.88;;;8.05;;
56537;SDS011;42435;53.292;6.000;2023-04-06T04:26:38;13.15;;;9.02;;
56537;SDS011;42435;53.292;6.000;2023-04-06T04:29:04;12.95;;;9.43;;
56537;SDS011;42435;53.292;6.000;2023-04-06T04:31:30;15.35;;;8.93;;
56537;SDS011;42435;53.292;6.000;2023-04-06T04:33:57;13.52;;;9.77;;
56537;SDS011;42435;53.292;6.000;2023-04-06T04:36:22;12.25;;;8.85;;
56537;SDS011;42435;53.292;6.000;2023-04-06T04:38:50;12.40;;;9.10;;
56537;SDS011;42435;53.292;6.000;2023-04-06T04:41:19;12.73;;;9.48;;
56537;SDS011;42435;53.292;6.000;2023-04-06T04:43:45;12.27;;;9.00;;
56537;SDS011;42435;53.292;6.000;2023-04-06T04:46:10;16.63;;;9.90;;
56537;SDS011;42435;53.292;6.000;2023-04-06T04:48:36;15.63;;;9.60;;
56537;SDS011;42435;53.292;6.000;2023-04-06T04:51:01;13.25;;;8.43;;
56537;SDS011;42435;53.292;6.000;2023-04-06T04:53:28;14.13;;;8.88;;
56537;SDS011;42435;53.292;6.000;2023-04-06T04:55:54;12.18;;;9.30;;
56537;SDS011;42435;53.292;6.000;2023-04-06T04:58:21;12.45;;;9.00;;
56537;SDS011;42435;53.292;6.000;2023-04-06T05:00:50;15.15;;;9.13;;
56537;SDS011;42435;53.292;6.000;2023-04-06T05:03:20;15.23;;;9.80;;
56537;SDS011;42435;53.292;6.000;2023-04-06T05:05:47;12.77;;;8.82;;
56537;SDS011;42435;53.292;6.000;2023-04-06T05:08:13;11.82;;;9.43;;
56537;SDS011;42435;53.292;6.000;2023-04-06T05:10:39;17.60;;;10.52;;
56537;SDS011;42435;53.292;6.000;2023-04-06T05:13:08;12.50;;;9.30;;
56537;SDS011;42435;53.292;6.000;2023-04-06T05:15:34;17.83;;;9.98;;
56537;SDS011;42435;53.292;6.000;2023-04-06T05:18:03;14.23;;;9.75;;
56537;SDS011;42435;53.292;6.000;2023-04-06T05:20:29;13.23;;;9.43;;
56537;SDS011;42435;53.292;6.000;2023-04-06T05:22:56;14.82;;;9.82;;
56537;SDS011;42435;53.292;6.000;2023-04-06T05:25:21;12.70;;;10.07;;
56537;SDS011;42435;53.292;6.000;2023-04-06T05:27:47;13.70;;;9.80;;
56537;SDS011;42435;53.292;6.000;2023-04-06T05:30:16;13.68;;;9.63;;
56537;SDS011;42435;53.292;6.000;2023-04-06T05:32:41;15.32;;;9.65;;
56537;SDS011;42435;53.292;6.000;2023-04-06T05:35:09;13.38;;;9.88;;
56537;SDS011;42435;53.292;6.000;2023-04-06T05:37:35;17.40;;;10.65;;
56537;SDS011;42435;53.292;6.000;2023-04-06T05:40:00;14.90;;;9.85;;
56537;SDS011;42435;53.292;6.000;2023-04-06T05:42:26;13.80;;;9.73;;
56537;SDS011;42435;53.292;6.000;2023-04-06T05:44:52;14.60;;;10.10;;
56537;SDS011;42435;53.292;6.000;2023-04-06T05:47:18;14.90;;;9.73;;
56537;SDS011;42435;53.292;6.000;2023-04-06T05:49:43;12.65;;;9.82;;
56537;SDS011;42435;53.292;6.000;2023-04-06T05:52:09;14.65;;;10.10;;
56537;SDS011;42435;53.292;6.000;2023-04-06T05:54:36;14.40;;;9.32;;
56537;SDS011;42435;53.292;6.000;2023-04-06T05:57:02;16.15;;;10.63;;
56537;SDS011;42435;53.292;6.000;2023-04-06T05:59:31;14.85;;;10.65;;
56537;SDS011;42435;53.292;6.000;2023-04-06T06:01:57;14.18;;;10.10;;
56537;SDS011;42435;53.292;6.000;2023-04-06T06:04:22;15.73;;;10.52;;
56537;SDS011;42435;53.292;6.000;2023-04-06T06:06:48;13.52;;;9.95;;
56537;SDS011;42435;53.292;6.000;2023-04-06T06:09:14;15.10;;;9.80;;
56537;SDS011;42435;53.292;6.000;2023-04-06T06:11:39;13.27;;;9.70;;
56537;SDS011;42435;53.292;6.000;2023-04-06T06:14:06;13.45;;;9.05;;
56537;SDS011;42435;53.292;6.000;2023-04-06T06:16:32;14.40;;;10.35;;
56537;SDS011;42435;53.292;6.000;2023-04-06T06:19:00;19.27;;;11.73;;
56537;SDS011;42435;53.292;6.000;2023-04-06T06:21:26;14.68;;;10.07;;
56537;SDS011;42435;53.292;6.000;2023-04-06T06:23:51;17.15;;;10.00;;
56537;SDS011;42435;53.292;6.000;2023-04-06T06:26:19;15.48;;;10.13;;
56537;SDS011;42435;53.292;6.000;2023-04-06T06:28:44;14.40;;;10.20;;
56537;SDS011;42435;53.292;6.000;2023-04-06T06:31:10;15.85;;;10.13;;
56537;SDS011;42435;53.292;6.000;2023-04-06T06:33:35;15.43;;;10.75;;
56537;SDS011;42435;53.292;6.000;2023-04-06T06:36:03;15.30;;;10.95;;
56537;SDS011;42435;53.292;6.000;2023-04-06T06:38:28;14.45;;;10.13;;
56537;SDS011;42435;53.292;6.000;2023-04-06T06:40:54;15.70;;;10.43;;
56537;SDS011;42435;53.292;6.000;2023-04-06T06:43:20;15.93;;;10.50;;
56537;SDS011;42435;53.292;6.000;2023-04-06T06:45:45;16.50;;;9.98;;
56537;SDS011;42435;53.292;6.000;2023-04-06T06:48:11;16.67;;;10.73;;
56537;SDS011;42435;53.292;6.000;2023-04-06T06:50:37;15.80;;;10.95;;
56537;SDS011;42435;53.292;6.000;2023-04-06T06:53:02;17.10;;;11.13;;
56537;SDS011;42435;53.292;6.000;2023-04-06T06:55:28;19.52;;;9.65;;
56537;SDS011;42435;53.292;6.000;2023-04-06T06:57:54;16.60;;;10.82;;
56537;SDS011;42435;53.292;6.000;2023-04-06T07:00:19;13.40;;;9.55;;
56537;SDS011;42435;53.292;6.000;2023-04-06T07:02:46;16.92;;;10.30;;
56537;SDS011;42435;53.292;6.000;2023-04-06T07:05:12;14.18;;;10.40;;
56537;SDS011;42435;53.292;6.000;2023-04-06T07:07:38;14.20;;;9.65;;
56537;SDS011;42435;53.292;6.000;2023-04-06T07:10:04;15.30;;;9.75;;
56537;SDS011;42435;53.292;6.000;2023-04-06T07:12:33;13.82;;;10.68;;
56537;SDS011;42435;53.292;6.000;2023-04-06T07:14:59;16.63;;;10.85;;
56537;SDS011;42435;53.292;6.000;2023-04-06T07:17:25;17.45;;;11.25;;
56537;SDS011;42435;53.292;6.000;2023-04-06T07:19:51;14.30;;;9.77;;
56537;SDS011;42435;53.292;6.000;2023-04-06T07:22:17;14.82;;;10.35;;
56537;SDS011;42435;53.292;6.000;2023-04-06T07:24:43;15.30;;;10.30;;
56537;SDS011;42435;53.292;6.000;2023-04-06T07:27:08;14.15;;;9.93;;
56537;SDS011;42435;53.292;6.000;2023-04-06T07:29:37;14.23;;;10.32;;
56537;SDS011;42435;53.292;6.000;2023-04-06T07:32:03;13.98;;;9.80;;
56537;SDS011;42435;53.292;6.000;2023-04-06T07:34:29;14.60;;;9.00;;
56537;SDS011;42435;53.292;6.000;2023-04-06T07:36:54;12.90;;;9.40;;
56537;SDS011;42435;53.292;6.000;2023-04-06T07:39:21;13.73;;;10.13;;
56537;SDS011;42435;53.292;6.000;2023-04-06T07:41:47;11.88;;;9.02;;
56537;SDS011;42435;53.292;6.000;2023-04-06T07:44:12;14.50;;;8.95;;
56537;SDS011;42435;53.292;6.000;2023-04-06T07:46:38;15.10;;;9.10;;
56537;SDS011;42435;53.292;6.000;2023-04-06T07:49:04;12.77;;;9.63;;
56537;SDS011;42435;53.292;6.000;2023-04-06T07:51:29;12.80;;;8.90;;
56537;SDS011;42435;53.292;6.000;2023-04-06T07:54:00;13.65;;;9.27;;
56537;SDS011;42435;53.292;6.000;2023-04-06T07:56:29;13.63;;;8.88;;
56537;SDS011;42435;53.292;6.000;2023-04-06T07:58:54;10.38;;;8.55;;
56537;SDS011;42435;53.292;6.000;2023-04-06T08:01:23;13.25;;;9.48;;
56537;SDS011;42435;53.292;6.000;2023-04-06T08:03:49;13.63;;;9.18;;
56537;SDS011;42435;53.292;6.000;2023-04-06T08:06:15;12.48;;;8.80;;
56537;SDS011;42435;53.292;6.000;2023-04-06T08:08:41;13.38;;;9.10;;
56537;SDS011;42435;53.292;6.000;2023-04-06T08:11:07;12.43;;;9.10;;
56537;SDS011;42435;53.292;6.000;2023-04-06T08:13:33;13.25;;;10.00;;
56537;SDS011;42435;53.292;6.000;2023-04-06T08:15:59;13.55;;;9.48;;
56537;SDS011;42435;53.292;6.000;2023-04-06T08:18:33;12.95;;;8.90;;
56537;SDS011;42435;53.292;6.000;2023-04-06T08:20:59;13.52;;;10.20;;
56537;SDS011;42435;53.292;6.000;2023-04-06T08:23:25;14.48;;;9.32;;
56537;SDS011;42435;53.292;6.000;2023-04-06T08:25:52;15.45;;;9.38;;
56537;SDS011;42435;53.292;6.000;2023-04-06T08:28:19;15.95;;;9.38;;
56537;SDS011;42435;53.292;6.000;2023-04-06T08:30:46;12.77;;;9.48;;
56537;SDS011;42435;53.292;6.000;2023-04-06T08:33:11;13.10;;;9.63;;
56537;SDS011;42435;53.292;6.000;2023-04-06T08:35:37;11.05;;;9.18;;
56537;SDS011;42435;53.292;6.000;2023-04-06T08:38:03;14.60;;;9.60;;
56537;SDS011;42435;53.292;6.000;2023-04-06T08:40:28;14.60;;;10.63;;
56537;SDS011;42435;53.292;6.000;2023-04-06T08:42:54;13.25;;;9.57;;
56537;SDS011;42435;53.292;6.000;2023-04-06T08:45:21;13.25;;;10.18;;
56537;SDS011;42435;53.292;6.000;2023-04-06T08:47:50;13.02;;;9.68;;
56537;SDS011;42435;53.292;6.000;2023-04-06T08:50:17;17.02;;;9.90;;
56537;SDS011;42435;53.292;6.000;2023-04-06T08:52:44;13.05;;;9.68;;
56537;SDS011;42435;53.292;6.000;2023-04-06T08:55:13;16.13;;;10.18;;
56537;SDS011;42435;53.292;6.000;2023-04-06T08:57:39;14.20;;;10.13;;
56537;SDS011;42435;53.292;6.000;2023-04-06T09:00:07;16.98;;;11.02;;
56537;SDS011;42435;53.292;6.000;2023-04-06T09:02:36;13.95;;;10.60;;
56537;SDS011;42435;53.292;6.000;2023-04-06T09:05:04;15.45;;;11.98;;
56537;SDS011;42435;53.292;6.000;2023-04-06T09:07:29;17.38;;;11.55;;
56537;SDS011;42435;53.292;6.000;2023-04-06T09:09:56;15.15;;;10.65;;
56537;SDS011;42435;53.292;6.000;2023-04-06T09:12:28;16.25;;;10.90;;
56537;SDS011;42435;53.292;6.000;2023-04-06T09:14:58;15.93;;;11.00;;
56537;SDS011;42435;53.292;6.000;2023-04-06T09:17:25;14.95;;;10.27;;
56537;SDS011;42435;53.292;6.000;2023-04-06T09:19:52;16.33;;;11.77;;
56537;SDS011;42435;53.292;6.000;2023-04-06T09:22:19;15.48;;;11.52;;
56537;SDS011;42435;53.292;6.000;2023-04-06T09:24:50;18.67;;;11.57;;
56537;SDS011;42435;53.292;6.000;2023-04-06T09:27:17;14.90;;;11.50;;
56537;SDS011;42435;53.292;6.000;2023-04-06T09:30:08;21.02;;;12.85;;
56537;SDS011;42435;53.292;6.000;2023-04-06T09:32:51;18.92;;;13.13;;
56537;SDS011;42435;53.292;6.000;2023-04-06T09:35:18;16.00;;;12.77;;
56537;SDS011;42435;53.292;6.000;2023-04-06T09:37:51;18.58;;;12.25;;
56537;SDS011;42435;53.292;6.000;2023-04-06T09:40:17;19.58;;;13.80;;
56537;SDS011;42435;53.292;6.000;2023-04-06T09:42:47;20.23;;;13.25;;
56537;SDS011;42435;53.292;6.000;2023-04-06T09:45:17;16.90;;;12.50;;
56537;SDS011;42435;53.292;6.000;2023-04-06T09:47:44;19.25;;;13.48;;
56537;SDS011;42435;53.292;6.000;2023-04-06T09:50:11;19.48;;;13.15;;
56537;SDS011;42435;53.292;6.000;2023-04-06T09:52:41;20.77;;;14.23;;
56537;SDS011;42435;53.292;6.000;2023-04-06T09:55:30;18.48;;;13.82;;
56537;SDS011;42435;53.292;6.000;2023-04-06T09:58:12;17.30;;;13.23;;
56537;SDS011;42435;53.292;6.000;2023-04-06T10:01:02;20.98;;;14.40;;
56537;SDS011;42435;53.292;6.000;2023-04-06T10:03:52;20.80;;;14.50;;
56537;SDS011;42435;53.292;6.000;2023-04-06T10:06:27;20.10;;;14.55;;
56537;SDS011;42435;53.292;6.000;2023-04-06T10:08:58;19.95;;;13.85;;
56537;SDS011;42435;53.292;6.000;2023-04-06T10:11:25;20.88;;;14.23;;
56537;SDS011;42435;53.292;6.000;2023-04-06T10:13:51;19.63;;;13.68;;
56537;SDS011;42435;53.292;6.000;2023-04-06T10:16:16;19.60;;;14.07;;
56537;SDS011;42435;53.292;6.000;2023-04-06T10:18:44;20.77;;;14.30;;
56537;SDS011;42435;53.292;6.000;2023-04-06T10:21:16;23.27;;;15.35;;
56537;SDS011;42435;53.292;6.000;2023-04-06T10:23:49;19.17;;;13.50;;
56537;SDS011;42435;53.292;6.000;2023-04-06T10:26:25;25.42;;;15.32;;
56537;SDS011;42435;53.292;6.000;2023-04-06T10:28:54;18.80;;;14.90;;
56537;SDS011;42435;53.292;6.000;2023-04-06T10:31:24;20.13;;;14.27;;
56537;SDS011;42435;53.292;6.000;2023-04-06T10:33:55;22.05;;;14.85;;
56537;SDS011;42435;53.292;6.000;2023-04-06T10:36:28;22.92;;;14.63;;
56537;SDS011;42435;53.292;6.000;2023-04-06T10:39:01;21.55;;;14.93;;
56537;SDS011;42435;53.292;6.000;2023-04-06T10:41:36;21.90;;;15.40;;
56537;SDS011;42435;53.292;6.000;2023-04-06T10:44:06;20.52;;;15.80;;
56537;SDS011;42435;53.292;6.000;2023-04-06T10:46:32;24.30;;;15.25;;
56537;SDS011;42435;53.292;6.000;2023-04-06T10:49:09;20.23;;;15.43;;
56537;SDS011;42435;53.292;6.000;2023-04-06T10:51:37;26.65;;;18.52;;
56537;SDS011;42435;53.292;6.000;2023-04-06T10:54:04;21.42;;;15.00;;
56537;SDS011;42435;53.292;6.000;2023-04-06T10:56:31;25.30;;;16.27;;
56537;SDS011;42435;53.292;6.000;2023-04-06T10:59:02;23.95;;;16.25;;
56537;SDS011;42435;53.292;6.000;2023-04-06T11:01:27;23.50;;;15.07;;
56537;SDS011;42435;53.292;6.000;2023-04-06T11:03:54;21.23;;;14.88;;
56537;SDS011;42435;53.292;6.000;2023-04-06T11:06:21;24.88;;;15.57;;
56537;SDS011;42435;53.292;6.000;2023-04-06T11:08:48;23.45;;;15.65;;
56537;SDS011;42435;53.292;6.000;2023-04-06T11:11:15;22.45;;;15.13;;
56537;SDS011;42435;53.292;6.000;2023-04-06T11:14:01;23.05;;;15.65;;
56537;SDS011;42435;53.292;6.000;2023-04-06T11:16:29;24.83;;;15.93;;
56537;SDS011;42435;53.292;6.000;2023-04-06T11:19:00;26.67;;;16.83;;
56537;SDS011;42435;53.292;6.000;2023-04-06T11:21:34;24.73;;;17.02;;
56537;SDS011;42435;53.292;6.000;2023-04-06T11:24:09;27.87;;;17.97;;
56537;SDS011;42435;53.292;6.000;2023-04-06T11:26:41;28.33;;;17.67;;
56537;SDS011;42435;53.292;6.000;2023-04-06T11:29:09;28.38;;;16.77;;
56537;SDS011;42435;53.292;6.000;2023-04-06T11:31:39;25.75;;;16.85;;
56537;SDS011;42435;53.292;6.000;2023-04-06T11:34:10;25.45;;;16.83;;
56537;SDS011;42435;53.292;6.000;2023-04-06T11:36:39;26.27;;;17.70;;
56537;SDS011;42435;53.292;6.000;2023-04-06T11:39:06;27.58;;;16.77;;
56537;SDS011;42435;53.292;6.000;2023-04-06T11:41:32;28.70;;;18.05;;
56537;SDS011;42435;53.292;6.000;2023-04-06T11:44:00;30.48;;;18.10;;
56537;SDS011;42435;53.292;6.000;2023-04-06T11:46:33;28.98;;;17.05;;
56537;SDS011;42435;53.292;6.000;2023-04-06T11:48:59;28.65;;;17.80;;
56537;SDS011;42435;53.292;6.000;2023-04-06T11:51:26;26.23;;;18.55;;
56537;SDS011;42435;53.292;6.000;2023-04-06T11:53:52;27.23;;;18.27;;
56537;SDS011;42435;53.292;6.000;2023-04-06T11:56:27;29.95;;;18.10;;
56537;SDS011;42435;53.292;6.000;2023-04-06T11:58:55;29.08;;;18.20;;
56537;SDS011;42435;53.292;6.000;2023-04-06T12:01:21;26.15;;;16.92;;
56537;SDS011;42435;53.292;6.000;2023-04-06T12:03:47;24.50;;;16.33;;
56537;SDS011;42435;53.292;6.000;2023-04-06T12:06:13;27.13;;;17.83;;
56537;SDS011;42435;53.292;6.000;2023-04-06T12:08:39;27.23;;;18.13;;
56537;SDS011;42435;53.292;6.000;2023-04-06T12:11:05;26.23;;;17.20;;
56537;SDS011;42435;53.292;6.000;2023-04-06T12:13:34;27.63;;;17.60;;
56537;SDS011;42435;53.292;6.000;2023-04-06T12:16:00;27.77;;;17.60;;
56537;SDS011;42435;53.292;6.000;2023-04-06T12:18:25;28.65;;;17.52;;
56537;SDS011;42435;53.292;6.000;2023-04-06T12:20:51;25.45;;;17.05;;
56537;SDS011;42435;53.292;6.000;2023-04-06T12:23:18;24.42;;;16.77;;
56537;SDS011;42435;53.292;6.000;2023-04-06T12:25:44;24.25;;;16.35;;
56537;SDS011;42435;53.292;6.000;2023-04-06T12:28:11;24.00;;;16.02;;
56537;SDS011;42435;53.292;6.000;2023-04-06T12:30:36;24.70;;;16.88;;
56537;SDS011;42435;53.292;6.000;2023-04-06T12:33:02;26.20;;;17.08;;
56537;SDS011;42435;53.292;6.000;2023-04-06T12:35:28;24.63;;;16.30;;
56537;SDS011;42435;53.292;6.000;2023-04-06T12:37:54;26.30;;;17.23;;
56537;SDS011;42435;53.292;6.000;2023-04-06T12:40:20;24.05;;;16.55;;
56537;SDS011;42435;53.292;6.000;2023-04-06T12:42:46;28.42;;;17.50;;
56537;SDS011;42435;53.292;6.000;2023-04-06T12:45:11;26.77;;;17.50;;
56537;SDS011;42435;53.292;6.000;2023-04-06T12:47:37;27.83;;;17.40;;
56537;SDS011;42435;53.292;6.000;2023-04-06T12:50:04;24.70;;;16.23;;
56537;SDS011;42435;53.292;6.000;2023-04-06T12:52:31;25.13;;;16.70;;
56537;SDS011;42435;53.292;6.000;2023-04-06T12:54:57;24.63;;;16.85;;
56537;SDS011;42435;53.292;6.000;2023-04-06T12:57:25;24.52;;;15.57;;
56537;SDS011;42435;53.292;6.000;2023-04-06T12:59:51;21.40;;;14.70;;
56537;SDS011;42435;53.292;6.000;2023-04-06T13:02:20;24.27;;;15.57;;
56537;SDS011;42435;53.292;6.000;2023-04-06T13:04:46;22.33;;;15.20;;
56537;SDS011;42435;53.292;6.000;2023-04-06T13:07:13;24.70;;;15.15;;
56537;SDS011;42435;53.292;6.000;2023-04-06T13:09:39;22.30;;;15.50;;
56537;SDS011;42435;53.292;6.000;2023-04-06T13:12:08;18.48;;;12.43;;
56537;SDS011;42435;53.292;6.000;2023-04-06T13:14:39;20.10;;;13.27;;
56537;SDS011;42435;53.292;6.000;2023-04-06T13:17:10;20.25;;;13.63;;
56537;SDS011;42435;53.292;6.000;2023-04-06T13:19:36;18.50;;;13.10;;
56537;SDS011;42435;53.292;6.000;2023-04-06T13:22:01;19.17;;;13.43;;
56537;SDS011;42435;53.292;6.000;2023-04-06T13:24:27;21.98;;;13.13;;
56537;SDS011;42435;53.292;6.000;2023-04-06T13:26:53;19.45;;;12.65;;
56537;SDS011;42435;53.292;6.000;2023-04-06T13:29:19;18.67;;;11.55;;
56537;SDS011;42435;53.292;6.000;2023-04-06T13:31:45;19.65;;;12.93;;
56537;SDS011;42435;53.292;6.000;2023-04-06T13:34:11;21.15;;;13.48;;
56537;SDS011;42435;53.292;6.000;2023-04-06T13:36:36;21.25;;;12.75;;
56537;SDS011;42435;53.292;6.000;2023-04-06T13:39:03;18.17;;;13.05;;
56537;SDS011;42435;53.292;6.000;2023-04-06T13:41:28;21.77;;;12.93;;
56537;SDS011;42435;53.292;6.000;2023-04-06T13:43:54;18.52;;;12.85;;
56537;SDS011;42435;53.292;6.000;2023-04-06T13:46:20;19.25;;;13.35;;
56537;SDS011;42435;53.292;6.000;2023-04-06T13:48:48;19.38;;;12.65;;
56537;SDS011;42435;53.292;6.000;2023-04-06T13:51:14;18.70;;;13.48;;
56537;SDS011;42435;53.292;6.000;2023-04-06T13:53:40;19.35;;;14.27;;
56537;SDS011;42435;53.292;6.000;2023-04-06T13:56:09;17.70;;;11.90;;
56537;SDS011;42435;53.292;6.000;2023-04-06T13:58:35;20.80;;;12.65;;
56537;SDS011;42435;53.292;6.000;2023-04-06T14:01:07;18.58;;;12.35;;
56537;SDS011;42435;53.292;6.000;2023-04-06T14:03:34;20.35;;;14.02;;
56537;SDS011;42435;53.292;6.000;2023-04-06T14:06:13;21.77;;;15.18;;
56537;SDS011;42435;53.292;6.000;2023-04-06T14:08:38;20.85;;;15.13;;
56537;SDS011;42435;53.292;6.000;2023-04-06T14:11:04;23.73;;;14.52;;
56537;SDS011;42435;53.292;6.000;2023-04-06T14:13:33;23.08;;;14.57;;
56537;SDS011;42435;53.292;6.000;2023-04-06T14:15:59;25.48;;;15.90;;
56537;SDS011;42435;53.292;6.000;2023-04-06T14:18:24;24.17;;;16.50;;
56537;SDS011;42435;53.292;6.000;2023-04-06T14:20:54;25.67;;;15.55;;
56537;SDS011;42435;53.292;6.000;2023-04-06T14:23:24;23.63;;;15.98;;
56537;SDS011;42435;53.292;6.000;2023-04-06T14:26:05;22.02;;;15.25;;
56537;SDS011;42435;53.292;6.000;2023-04-06T14:28:34;25.13;;;16.73;;